Magnolia — WDB7135 — position and weather

sailwx.info

Track history (hours):
 
Tides and Currents Weather Stations Pressure Air Temp Water Temp Dewpoint Dewpoint Depression Visibility Wind Speed Wind Dir Waves Ship Positions

Magnolia

Owner: Magnolia Marine Transport Co, Vicksburg, MS. More information available from US FCC via Universal Licensing System and Coast Guard Vessel Documentation Center.

Last reported at 2017-Jan-20 17:12 UTC. Time now 2017-Jan-22 08:03 UTC.
Position N 32°06' W 091°06'.

Length 215 m.

MMSI: 366936960.

Date/timePositionNaut miles runAvg speedWind from/ knotsBaromVisibWave heightAir tempDewpointWater temp
2017-Jan-20 17:12N 32°06' W 091°06'3 5.0
2017-Jan-20 16:31N 32°07' W 091°02'7 7.5
2017-Jan-20 15:34N 32°14' W 090°59'8 8.0
2017-Jan-20 14:33N 32°21' W 090°54'0 0.1
2017-Jan-20 13:34N 32°21' W 090°54'0 0.4
2017-Jan-20 12:33N 32°21' W 090°53'2 2.0
2017-Jan-20 11:33N 32°23' W 090°53'0 0.1
2017-Jan-20 10:33N 32°23' W 090°53'2 1.5
2017-Jan-20 09:34N 32°21' W 090°53'5 4.6
2017-Jan-20 08:34N 32°21' W 090°58'8 7.9
2017-Jan-20 07:34N 32°27' W 091°05'10 8.7
2017-Jan-20 06:22N 32°36' W 091°09'  
2017-Jan-17 04:29N 32°36' W 091°08'4 3.9
2017-Jan-17 03:31N 32°32' W 091°06'4 4.5
2017-Jan-17 02:33N 32°28' W 091°06'4 4.4
2017-Jan-17 01:33N 32°26' W 091°01'3 3.4
2017-Jan-17 00:34N 32°23' W 091°00'2 2.4
2017-Jan-16 23:34N 32°21' W 090°58'4 3.6
2017-Jan-16 22:34N 32°20' W 090°54'0 0.3
2017-Jan-16 21:34N 32°20' W 090°54'0 0.0
2017-Jan-16 20:34N 32°20' W 090°54'2 2.1
2017-Jan-16 19:34N 32°22' W 090°53'0 0.0
2017-Jan-16 18:34N 32°22' W 090°53'2 2.0
2017-Jan-16 17:34N 32°23' W 090°55'0 0.0
2017-Jan-16 16:34N 32°23' W 090°55'0 0.1
2017-Jan-16 15:34N 32°23' W 090°55'0 0.0
2017-Jan-16 14:34N 32°23' W 090°55'0 0.0
2017-Jan-16 13:34N 32°23' W 090°55'0 0.0
2017-Jan-16 12:34N 32°23' W 090°55'0 0.0
2017-Jan-16 11:34N 32°23' W 090°55'0 0.0
2017-Jan-16 10:34N 32°23' W 090°55'0 0.0
2017-Jan-16 09:33N 32°23' W 090°55'0 0.0
2017-Jan-16 08:34N 32°23' W 090°55'0 0.0
2017-Jan-16 07:34N 32°23' W 090°55'0 0.0
2017-Jan-16 06:33N 32°23' W 090°55'0 0.0
2017-Jan-16 05:34N 32°23' W 090°55'0 0.0
2017-Jan-16 04:33N 32°23' W 090°55'0 0.0
2017-Jan-16 03:34N 32°23' W 090°55'0 0.0
2017-Jan-16 02:33N 32°23' W 090°55'0 0.0
2017-Jan-16 01:34N 32°23' W 090°55'2 1.8
2017-Jan-16 00:34N 32°22' W 090°53'3 3.0
2017-Jan-15 23:34N 32°19' W 090°54'2 1.7
2017-Jan-15 22:34N 32°18' W 090°55'4 4.1
2017-Jan-15 21:33N 32°15' W 090°59'5 5.2
2017-Jan-15 20:34N 32°10' W 091°00'4 3.9
2017-Jan-15 19:33N 32°08' W 091°03'4 2.8
2017-Jan-15 18:07N 32°04' W 091°03'  
2017-Jan-11 09:34N 32°00' W 091°05'8 7.7
2017-Jan-11 08:34N 32°08' W 091°06'6 5.9
2017-Jan-11 07:34N 32°11' W 090°60'9 9.3
2017-Jan-11 06:34N 32°19' W 090°54'3 3.3
2017-Jan-11 05:34N 32°22' W 090°53'2 1.7
2017-Jan-11 04:34N 32°23' W 090°54'0 0.1
2017-Jan-11 03:34N 32°23' W 090°54'0 0.0
2017-Jan-11 02:33N 32°23' W 090°54'0 0.0
2017-Jan-11 01:34N 32°23' W 090°54'0 0.0
2017-Jan-11 00:34N 32°23' W 090°54'0 0.0
2017-Jan-10 23:34N 32°23' W 090°54'0 0.0
2017-Jan-10 22:34N 32°23' W 090°54'0 0.0
2017-Jan-10 21:33N 32°23' W 090°54'0 0.0
2017-Jan-10 20:34N 32°23' W 090°54'1 1.1
2017-Jan-10 19:34N 32°23' W 090°53'0 0.0
2017-Jan-10 18:34N 32°23' W 090°53'1 1.0
2017-Jan-10 17:34N 32°23' W 090°54'  
Track history (hours):
 
Tides and Currents Weather Stations Pressure Air Temp Water Temp Dewpoint Dewpoint Depression Visibility Wind Speed Wind Dir Waves Ship Positions

Magnolia

Owner: Magnolia Marine Transport Co, Vicksburg, MS. More information available from US FCC via Universal Licensing System and Coast Guard Vessel Documentation Center.

Last reported at 2017-Jan-20 17:12 UTC. Time now 2017-Jan-22 08:03 UTC.
Position N 32°06' W 091°06'.

Length 215 m.

MMSI: 366936960.

Date/timePositionNaut miles runAvg speedWind from/ knotsBaromVisibWave heightAir tempDewpointWater temp
2017-Jan-20 17:12N 32°06' W 091°06'3 5.0
2017-Jan-20 16:31N 32°07' W 091°02'7 7.5
2017-Jan-20 15:34N 32°14' W 090°59'8 8.0
2017-Jan-20 14:33N 32°21' W 090°54'0 0.1
2017-Jan-20 13:34N 32°21' W 090°54'0 0.4
2017-Jan-20 12:33N 32°21' W 090°53'2 2.0
2017-Jan-20 11:33N 32°23' W 090°53'0 0.1
2017-Jan-20 10:33N 32°23' W 090°53'2 1.5
2017-Jan-20 09:34N 32°21' W 090°53'5 4.6
2017-Jan-20 08:34N 32°21' W 090°58'8 7.9
2017-Jan-20 07:34N 32°27' W 091°05'10 8.7
2017-Jan-20 06:22N 32°36' W 091°09'  
2017-Jan-17 04:29N 32°36' W 091°08'4 3.9
2017-Jan-17 03:31N 32°32' W 091°06'4 4.5
2017-Jan-17 02:33N 32°28' W 091°06'4 4.4
2017-Jan-17 01:33N 32°26' W 091°01'3 3.4
2017-Jan-17 00:34N 32°23' W 091°00'2 2.4
2017-Jan-16 23:34N 32°21' W 090°58'4 3.6
2017-Jan-16 22:34N 32°20' W 090°54'0 0.3
2017-Jan-16 21:34N 32°20' W 090°54'0 0.0
2017-Jan-16 20:34N 32°20' W 090°54'2 2.1
2017-Jan-16 19:34N 32°22' W 090°53'0 0.0
2017-Jan-16 18:34N 32°22' W 090°53'2 2.0
2017-Jan-16 17:34N 32°23' W 090°55'0 0.0
2017-Jan-16 16:34N 32°23' W 090°55'0 0.1
2017-Jan-16 15:34N 32°23' W 090°55'0 0.0
2017-Jan-16 14:34N 32°23' W 090°55'0 0.0
2017-Jan-16 13:34N 32°23' W 090°55'0 0.0
2017-Jan-16 12:34N 32°23' W 090°55'0 0.0
2017-Jan-16 11:34N 32°23' W 090°55'0 0.0
2017-Jan-16 10:34N 32°23' W 090°55'0 0.0
2017-Jan-16 09:33N 32°23' W 090°55'0 0.0
2017-Jan-16 08:34N 32°23' W 090°55'0 0.0
2017-Jan-16 07:34N 32°23' W 090°55'0 0.0
2017-Jan-16 06:33N 32°23' W 090°55'0 0.0
2017-Jan-16 05:34N 32°23' W 090°55'0 0.0
2017-Jan-16 04:33N 32°23' W 090°55'0 0.0
2017-Jan-16 03:34N 32°23' W 090°55'0 0.0
2017-Jan-16 02:33N 32°23' W 090°55'0 0.0
2017-Jan-16 01:34N 32°23' W 090°55'2 1.8
2017-Jan-16 00:34N 32°22' W 090°53'3 3.0
2017-Jan-15 23:34N 32°19' W 090°54'2 1.7
2017-Jan-15 22:34N 32°18' W 090°55'4 4.1
2017-Jan-15 21:33N 32°15' W 090°59'5 5.2
2017-Jan-15 20:34N 32°10' W 091°00'4 3.9
2017-Jan-15 19:33N 32°08' W 091°03'4 2.8
2017-Jan-15 18:07N 32°04' W 091°03'  
2017-Jan-11 09:34N 32°00' W 091°05'8 7.7
2017-Jan-11 08:34N 32°08' W 091°06'6 5.9
2017-Jan-11 07:34N 32°11' W 090°60'9 9.3
2017-Jan-11 06:34N 32°19' W 090°54'3 3.3
2017-Jan-11 05:34N 32°22' W 090°53'2 1.7
2017-Jan-11 04:34N 32°23' W 090°54'0 0.1
2017-Jan-11 03:34N 32°23' W 090°54'0 0.0
2017-Jan-11 02:33N 32°23' W 090°54'0 0.0
2017-Jan-11 01:34N 32°23' W 090°54'0 0.0
2017-Jan-11 00:34N 32°23' W 090°54'0 0.0
2017-Jan-10 23:34N 32°23' W 090°54'0 0.0
2017-Jan-10 22:34N 32°23' W 090°54'0 0.0
2017-Jan-10 21:33N 32°23' W 090°54'0 0.0
2017-Jan-10 20:34N 32°23' W 090°54'1 1.1
2017-Jan-10 19:34N 32°23' W 090°53'0 0.0
2017-Jan-10 18:34N 32°23' W 090°53'1 1.0
2017-Jan-10 17:34N 32°23' W 090°54'  

Dump ship's entire track history